sensor_id;sensor_type;location;lat;lon;timestamp;P1;durP1;ratioP1;P2;durP2;ratioP2
11191;SDS011;5652;48.406;10.820;2023-04-19T00:00:05;12.45;;;8.10;;
11191;SDS011;5652;48.406;10.820;2023-04-19T00:02:33;10.60;;;7.77;;
11191;SDS011;5652;48.406;10.820;2023-04-19T00:05:00;14.05;;;8.15;;
11191;SDS011;5652;48.406;10.820;2023-04-19T00:07:27;12.75;;;8.75;;
11191;SDS011;5652;48.406;10.820;2023-04-19T00:09:56;12.65;;;7.80;;
11191;SDS011;5652;48.406;10.820;2023-04-19T00:12:23;12.77;;;8.68;;
11191;SDS011;5652;48.406;10.820;2023-04-19T00:14:50;13.02;;;8.57;;
11191;SDS011;5652;48.406;10.820;2023-04-19T00:17:17;12.80;;;8.43;;
11191;SDS011;5652;48.406;10.820;2023-04-19T00:19:45;11.02;;;8.50;;
11191;SDS011;5652;48.406;10.820;2023-04-19T00:22:12;16.10;;;9.05;;
11191;SDS011;5652;48.406;10.820;2023-04-19T00:24:39;14.10;;;9.50;;
11191;SDS011;5652;48.406;10.820;2023-04-19T00:27:09;13.23;;;9.00;;
11191;SDS011;5652;48.406;10.820;2023-04-19T00:29:36;13.55;;;9.18;;
11191;SDS011;5652;48.406;10.820;2023-04-19T00:32:03;14.38;;;9.23;;
11191;SDS011;5652;48.406;10.820;2023-04-19T00:34:30;13.38;;;9.02;;
11191;SDS011;5652;48.406;10.820;2023-04-19T00:36:58;15.55;;;8.98;;
11191;SDS011;5652;48.406;10.820;2023-04-19T00:39:25;15.13;;;9.65;;
11191;SDS011;5652;48.406;10.820;2023-04-19T00:41:52;13.13;;;8.93;;
11191;SDS011;5652;48.406;10.820;2023-04-19T00:44:22;13.87;;;9.50;;
11191;SDS011;5652;48.406;10.820;2023-04-19T00:46:49;15.07;;;9.55;;
11191;SDS011;5652;48.406;10.820;2023-04-19T00:49:17;14.48;;;9.43;;
11191;SDS011;5652;48.406;10.820;2023-04-19T00:51:46;15.45;;;9.75;;
11191;SDS011;5652;48.406;10.820;2023-04-19T00:54:13;17.15;;;10.07;;
11191;SDS011;5652;48.406;10.820;2023-04-19T00:56:40;14.70;;;9.70;;
11191;SDS011;5652;48.406;10.820;2023-04-19T00:59:08;15.43;;;9.95;;
11191;SDS011;5652;48.406;10.820;2023-04-19T01:01:36;13.35;;;9.50;;
11191;SDS011;5652;48.406;10.820;2023-04-19T01:04:04;15.65;;;9.82;;
11191;SDS011;5652;48.406;10.820;2023-04-19T01:06:31;19.23;;;10.27;;
11191;SDS011;5652;48.406;10.820;2023-04-19T01:08:59;14.77;;;10.23;;
11191;SDS011;5652;48.406;10.820;2023-04-19T01:11:26;16.48;;;10.73;;
11191;SDS011;5652;48.406;10.820;2023-04-19T01:13:54;16.17;;;10.88;;
11191;SDS011;5652;48.406;10.820;2023-04-19T01:16:22;15.77;;;10.50;;
11191;SDS011;5652;48.406;10.820;2023-04-19T01:18:51;16.98;;;11.00;;
11191;SDS011;5652;48.406;10.820;2023-04-19T01:21:19;16.90;;;10.88;;
11191;SDS011;5652;48.406;10.820;2023-04-19T01:23:48;17.25;;;10.40;;
11191;SDS011;5652;48.406;10.820;2023-04-19T01:26:16;18.08;;;11.52;;
11191;SDS011;5652;48.406;10.820;2023-04-19T01:28:43;15.15;;;10.80;;
11191;SDS011;5652;48.406;10.820;2023-04-19T01:31:10;16.15;;;10.48;;
11191;SDS011;5652;48.406;10.820;2023-04-19T01:33:37;17.05;;;11.00;;
11191;SDS011;5652;48.406;10.820;2023-04-19T01:36:05;17.77;;;11.50;;
11191;SDS011;5652;48.406;10.820;2023-04-19T01:38:32;17.17;;;11.23;;
11191;SDS011;5652;48.406;10.820;2023-04-19T01:41:01;23.13;;;14.40;;
11191;SDS011;5652;48.406;10.820;2023-04-19T01:43:28;20.25;;;13.05;;
11191;SDS011;5652;48.406;10.820;2023-04-19T01:45:55;21.77;;;12.05;;
11191;SDS011;5652;48.406;10.820;2023-04-19T01:48:22;21.58;;;12.57;;
11191;SDS011;5652;48.406;10.820;2023-04-19T01:50:49;29.95;;;15.77;;
11191;SDS011;5652;48.406;10.820;2023-04-19T01:53:17;25.60;;;14.40;;
11191;SDS011;5652;48.406;10.820;2023-04-19T01:55:44;22.42;;;15.10;;
11191;SDS011;5652;48.406;10.820;2023-04-19T01:58:12;18.50;;;12.75;;
11191;SDS011;5652;48.406;10.820;2023-04-19T02:00:40;18.90;;;12.20;;
11191;SDS011;5652;48.406;10.820;2023-04-19T02:03:07;20.00;;;13.10;;
11191;SDS011;5652;48.406;10.820;2023-04-19T02:05:34;18.23;;;11.93;;
11191;SDS011;5652;48.406;10.820;2023-04-19T02:08:01;18.60;;;12.25;;
11191;SDS011;5652;48.406;10.820;2023-04-19T02:10:28;19.95;;;11.98;;
11191;SDS011;5652;48.406;10.820;2023-04-19T02:12:56;19.98;;;12.40;;
11191;SDS011;5652;48.406;10.820;2023-04-19T02:15:24;20.63;;;12.50;;
11191;SDS011;5652;48.406;10.820;2023-04-19T02:17:51;19.95;;;12.30;;
11191;SDS011;5652;48.406;10.820;2023-04-19T02:20:19;18.10;;;11.40;;
11191;SDS011;5652;48.406;10.820;2023-04-19T02:22:46;18.58;;;11.88;;
11191;SDS011;5652;48.406;10.820;2023-04-19T02:25:13;18.88;;;11.30;;
11191;SDS011;5652;48.406;10.820;2023-04-19T02:27:40;18.55;;;11.65;;
11191;SDS011;5652;48.406;10.820;2023-04-19T02:30:08;17.67;;;12.30;;
11191;SDS011;5652;48.406;10.820;2023-04-19T02:32:36;17.23;;;11.15;;
11191;SDS011;5652;48.406;10.820;2023-04-19T02:35:04;18.23;;;11.88;;
11191;SDS011;5652;48.406;10.820;2023-04-19T02:37:31;17.40;;;11.38;;
11191;SDS011;5652;48.406;10.820;2023-04-19T02:39:58;18.27;;;11.10;;
11191;SDS011;5652;48.406;10.820;2023-04-19T02:42:25;16.00;;;11.13;;
11191;SDS011;5652;48.406;10.820;2023-04-19T02:44:52;21.60;;;12.20;;
11191;SDS011;5652;48.406;10.820;2023-04-19T02:47:19;17.63;;;11.48;;
11191;SDS011;5652;48.406;10.820;2023-04-19T02:49:48;17.58;;;11.93;;
11191;SDS011;5652;48.406;10.820;2023-04-19T02:52:15;20.05;;;12.18;;
11191;SDS011;5652;48.406;10.820;2023-04-19T02:54:42;18.00;;;11.47;;
11191;SDS011;5652;48.406;10.820;2023-04-19T02:57:09;16.98;;;10.98;;
11191;SDS011;5652;48.406;10.820;2023-04-19T02:59:36;16.00;;;11.10;;
11191;SDS011;5652;48.406;10.820;2023-04-19T03:02:03;19.25;;;12.00;;
11191;SDS011;5652;48.406;10.820;2023-04-19T03:04:30;20.08;;;12.73;;
11191;SDS011;5652;48.406;10.820;2023-04-19T03:06:59;17.90;;;11.88;;
11191;SDS011;5652;48.406;10.820;2023-04-19T03:09:26;18.90;;;11.90;;
11191;SDS011;5652;48.406;10.820;2023-04-19T03:11:53;19.25;;;11.95;;
11191;SDS011;5652;48.406;10.820;2023-04-19T03:14:21;19.35;;;12.45;;
11191;SDS011;5652;48.406;10.820;2023-04-19T03:16:48;20.33;;;11.63;;
11191;SDS011;5652;48.406;10.820;2023-04-19T03:19:15;18.65;;;11.85;;
11191;SDS011;5652;48.406;10.820;2023-04-19T03:21:42;20.00;;;12.38;;
11191;SDS011;5652;48.406;10.820;2023-04-19T03:24:11;18.20;;;11.75;;
11191;SDS011;5652;48.406;10.820;2023-04-19T03:26:38;16.63;;;11.20;;
11191;SDS011;5652;48.406;10.820;2023-04-19T03:29:05;19.55;;;12.27;;
11191;SDS011;5652;48.406;10.820;2023-04-19T03:31:32;19.90;;;12.45;;
11191;SDS011;5652;48.406;10.820;2023-04-19T03:33:59;19.33;;;12.07;;
11191;SDS011;5652;48.406;10.820;2023-04-19T03:36:26;20.50;;;11.98;;
11191;SDS011;5652;48.406;10.820;2023-04-19T03:38:55;20.33;;;12.10;;
11191;SDS011;5652;48.406;10.820;2023-04-19T03:41:24;18.23;;;12.02;;
11191;SDS011;5652;48.406;10.820;2023-04-19T03:43:51;17.90;;;12.03;;
11191;SDS011;5652;48.406;10.820;2023-04-19T03:46:18;18.58;;;11.70;;
11191;SDS011;5652;48.406;10.820;2023-04-19T03:48:46;18.70;;;11.75;;
11191;SDS011;5652;48.406;10.820;2023-04-19T03:51:13;18.27;;;10.93;;
11191;SDS011;5652;48.406;10.820;2023-04-19T03:53:40;19.23;;;11.52;;
11191;SDS011;5652;48.406;10.820;2023-04-19T03:56:08;20.23;;;11.82;;
11191;SDS011;5652;48.406;10.820;2023-04-19T03:58:36;20.88;;;11.68;;
11191;SDS011;5652;48.406;10.820;2023-04-19T04:01:03;18.97;;;11.80;;
11191;SDS011;5652;48.406;10.820;2023-04-19T04:03:32;19.15;;;10.80;;
11191;SDS011;5652;48.406;10.820;2023-04-19T04:05:59;19.08;;;12.13;;
11191;SDS011;5652;48.406;10.820;2023-04-19T04:08:26;19.58;;;11.80;;
11191;SDS011;5652;48.406;10.820;2023-04-19T04:10:53;18.98;;;11.40;;
11191;SDS011;5652;48.406;10.820;2023-04-19T04:13:20;16.83;;;10.82;;
11191;SDS011;5652;48.406;10.820;2023-04-19T04:15:49;18.33;;;11.20;;
11191;SDS011;5652;48.406;10.820;2023-04-19T04:18:16;17.33;;;11.75;;
11191;SDS011;5652;48.406;10.820;2023-04-19T04:20:43;19.42;;;11.45;;
11191;SDS011;5652;48.406;10.820;2023-04-19T04:23:10;18.13;;;11.27;;
11191;SDS011;5652;48.406;10.820;2023-04-19T04:25:38;18.73;;;10.93;;
11191;SDS011;5652;48.406;10.820;2023-04-19T04:28:06;18.95;;;11.40;;
11191;SDS011;5652;48.406;10.820;2023-04-19T04:30:34;20.13;;;11.82;;
11191;SDS011;5652;48.406;10.820;2023-04-19T04:33:03;18.47;;;11.70;;
11191;SDS011;5652;48.406;10.820;2023-04-19T04:35:30;20.33;;;12.20;;
11191;SDS011;5652;48.406;10.820;2023-04-19T04:37:57;19.10;;;11.30;;
11191;SDS011;5652;48.406;10.820;2023-04-19T04:40:25;20.80;;;12.43;;
11191;SDS011;5652;48.406;10.820;2023-04-19T04:42:52;20.08;;;12.07;;
11191;SDS011;5652;48.406;10.820;2023-04-19T04:45:19;21.17;;;12.27;;
11191;SDS011;5652;48.406;10.820;2023-04-19T04:47:46;17.45;;;10.85;;
11191;SDS011;5652;48.406;10.820;2023-04-19T04:50:14;18.80;;;11.30;;
11191;SDS011;5652;48.406;10.820;2023-04-19T04:52:42;18.50;;;11.48;;
11191;SDS011;5652;48.406;10.820;2023-04-19T04:55:09;20.02;;;12.63;;
11191;SDS011;5652;48.406;10.820;2023-04-19T04:57:36;20.35;;;11.10;;
11191;SDS011;5652;48.406;10.820;2023-04-19T05:00:03;18.05;;;10.88;;
11191;SDS011;5652;48.406;10.820;2023-04-19T05:02:31;20.13;;;11.68;;
11191;SDS011;5652;48.406;10.820;2023-04-19T05:04:58;19.10;;;10.98;;
11191;SDS011;5652;48.406;10.820;2023-04-19T05:07:27;19.15;;;11.50;;
11191;SDS011;5652;48.406;10.820;2023-04-19T05:09:54;17.97;;;10.87;;
11191;SDS011;5652;48.406;10.820;2023-04-19T05:12:21;19.15;;;11.45;;
11191;SDS011;5652;48.406;10.820;2023-04-19T05:14:48;19.10;;;11.15;;
11191;SDS011;5652;48.406;10.820;2023-04-19T05:17:15;19.15;;;11.35;;
11191;SDS011;5652;48.406;10.820;2023-04-19T05:19:42;16.83;;;10.65;;
11191;SDS011;5652;48.406;10.820;2023-04-19T05:22:09;18.87;;;11.03;;
11191;SDS011;5652;48.406;10.820;2023-04-19T05:24:39;18.40;;;11.02;;
11191;SDS011;5652;48.406;10.820;2023-04-19T05:27:06;18.48;;;10.32;;
11191;SDS011;5652;48.406;10.820;2023-04-19T05:29:34;19.25;;;10.90;;
11191;SDS011;5652;48.406;10.820;2023-04-19T05:32:01;19.58;;;10.40;;
11191;SDS011;5652;48.406;10.820;2023-04-19T05:34:28;17.23;;;10.02;;
11191;SDS011;5652;48.406;10.820;2023-04-19T05:36:56;18.97;;;10.80;;
11191;SDS011;5652;48.406;10.820;2023-04-19T05:39:23;18.42;;;10.38;;
11191;SDS011;5652;48.406;10.820;2023-04-19T05:41:51;19.55;;;11.25;;
11191;SDS011;5652;48.406;10.820;2023-04-19T05:44:18;15.52;;;9.88;;
11191;SDS011;5652;48.406;10.820;2023-04-19T05:46:45;18.08;;;10.63;;
11191;SDS011;5652;48.406;10.820;2023-04-19T05:49:12;18.75;;;10.55;;
11191;SDS011;5652;48.406;10.820;2023-04-19T05:51:39;16.00;;;10.43;;
11191;SDS011;5652;48.406;10.820;2023-04-19T05:54:07;16.77;;;10.73;;
11191;SDS011;5652;48.406;10.820;2023-04-19T05:56:37;19.67;;;10.47;;
11191;SDS011;5652;48.406;10.820;2023-04-19T05:59:05;17.10;;;9.50;;
11191;SDS011;5652;48.406;10.820;2023-04-19T06:01:35;17.55;;;10.43;;
11191;SDS011;5652;48.406;10.820;2023-04-19T06:04:02;21.75;;;11.07;;
11191;SDS011;5652;48.406;10.820;2023-04-19T06:06:29;18.85;;;10.25;;
11191;SDS011;5652;48.406;10.820;2023-04-19T06:08:57;17.27;;;10.45;;
11191;SDS011;5652;48.406;10.820;2023-04-19T06:11:24;17.48;;;10.10;;
11191;SDS011;5652;48.406;10.820;2023-04-19T06:13:51;17.05;;;10.13;;
11191;SDS011;5652;48.406;10.820;2023-04-19T06:16:19;16.33;;;9.87;;
11191;SDS011;5652;48.406;10.820;2023-04-19T06:18:47;18.40;;;9.52;;
11191;SDS011;5652;48.406;10.820;2023-04-19T06:21:14;19.75;;;10.02;;
11191;SDS011;5652;48.406;10.820;2023-04-19T06:23:41;16.25;;;9.93;;
11191;SDS011;5652;48.406;10.820;2023-04-19T06:26:08;17.48;;;10.25;;
11191;SDS011;5652;48.406;10.820;2023-04-19T06:28:36;19.33;;;10.43;;
11191;SDS011;5652;48.406;10.820;2023-04-19T06:31:03;18.63;;;10.40;;
11191;SDS011;5652;48.406;10.820;2023-04-19T06:33:31;17.00;;;9.80;;
11191;SDS011;5652;48.406;10.820;2023-04-19T06:35:59;16.83;;;9.90;;
11191;SDS011;5652;48.406;10.820;2023-04-19T06:38:27;15.50;;;9.45;;
11191;SDS011;5652;48.406;10.820;2023-04-19T06:40:54;15.15;;;9.68;;
11191;SDS011;5652;48.406;10.820;2023-04-19T06:43:21;17.05;;;9.43;;
11191;SDS011;5652;48.406;10.820;2023-04-19T06:45:48;14.98;;;9.02;;
11191;SDS011;5652;48.406;10.820;2023-04-19T06:48:15;15.40;;;9.35;;
11191;SDS011;5652;48.406;10.820;2023-04-19T06:50:43;17.10;;;8.90;;
11191;SDS011;5652;48.406;10.820;2023-04-19T06:53:10;17.70;;;9.13;;
11191;SDS011;5652;48.406;10.820;2023-04-19T06:55:38;15.87;;;9.17;;
11191;SDS011;5652;48.406;10.820;2023-04-19T06:58:05;15.38;;;8.90;;
11191;SDS011;5652;48.406;10.820;2023-04-19T07:00:34;14.13;;;8.88;;
11191;SDS011;5652;48.406;10.820;2023-04-19T07:03:01;14.25;;;9.00;;
11191;SDS011;5652;48.406;10.820;2023-04-19T07:05:29;15.73;;;8.73;;
11191;SDS011;5652;48.406;10.820;2023-04-19T07:07:58;14.35;;;8.55;;
11191;SDS011;5652;48.406;10.820;2023-04-19T07:10:25;14.00;;;8.98;;
11191;SDS011;5652;48.406;10.820;2023-04-19T07:12:52;14.68;;;8.52;;
11191;SDS011;5652;48.406;10.820;2023-04-19T07:15:20;14.82;;;9.23;;
11191;SDS011;5652;48.406;10.820;2023-04-19T07:17:47;14.70;;;9.10;;
11191;SDS011;5652;48.406;10.820;2023-04-19T07:20:14;16.77;;;8.90;;
11191;SDS011;5652;48.406;10.820;2023-04-19T07:22:41;13.40;;;8.43;;
11191;SDS011;5652;48.406;10.820;2023-04-19T07:25:10;13.60;;;8.60;;
11191;SDS011;5652;48.406;10.820;2023-04-19T07:27:37;13.05;;;8.25;;
11191;SDS011;5652;48.406;10.820;2023-04-19T07:30:05;13.45;;;8.00;;
11191;SDS011;5652;48.406;10.820;2023-04-19T07:32:32;11.85;;;8.02;;
11191;SDS011;5652;48.406;10.820;2023-04-19T07:35:00;13.13;;;7.95;;
11191;SDS011;5652;48.406;10.820;2023-04-19T07:37:27;12.02;;;8.10;;
11191;SDS011;5652;48.406;10.820;2023-04-19T07:39:54;15.10;;;7.88;;
11191;SDS011;5652;48.406;10.820;2023-04-19T07:42:23;15.55;;;8.30;;
11191;SDS011;5652;48.406;10.820;2023-04-19T07:44:50;12.90;;;8.35;;
11191;SDS011;5652;48.406;10.820;2023-04-19T07:47:17;13.20;;;8.70;;
11191;SDS011;5652;48.406;10.820;2023-04-19T07:49:46;14.13;;;8.33;;
11191;SDS011;5652;48.406;10.820;2023-04-19T07:52:15;12.20;;;8.20;;
11191;SDS011;5652;48.406;10.820;2023-04-19T07:54:43;14.33;;;8.23;;
11191;SDS011;5652;48.406;10.820;2023-04-19T07:57:10;13.50;;;8.00;;
11191;SDS011;5652;48.406;10.820;2023-04-19T07:59:38;11.63;;;8.02;;
11191;SDS011;5652;48.406;10.820;2023-04-19T08:02:06;12.32;;;8.93;;
11191;SDS011;5652;48.406;10.820;2023-04-19T08:04:33;13.50;;;7.95;;
11191;SDS011;5652;48.406;10.820;2023-04-19T08:07:01;11.00;;;8.35;;
11191;SDS011;5652;48.406;10.820;2023-04-19T08:09:28;13.35;;;8.40;;
11191;SDS011;5652;48.406;10.820;2023-04-19T08:11:56;12.27;;;8.38;;
11191;SDS011;5652;48.406;10.820;2023-04-19T08:14:23;14.45;;;8.90;;
11191;SDS011;5652;48.406;10.820;2023-04-19T08:16:51;12.98;;;8.68;;
11191;SDS011;5652;48.406;10.820;2023-04-19T08:19:18;14.40;;;8.52;;
11191;SDS011;5652;48.406;10.820;2023-04-19T08:21:46;11.85;;;8.45;;
11191;SDS011;5652;48.406;10.820;2023-04-19T08:24:13;12.17;;;8.10;;
11191;SDS011;5652;48.406;10.820;2023-04-19T08:26:40;12.82;;;7.97;;
11191;SDS011;5652;48.406;10.820;2023-04-19T08:29:07;12.93;;;8.57;;
11191;SDS011;5652;48.406;10.820;2023-04-19T08:31:34;13.90;;;8.47;;
11191;SDS011;5652;48.406;10.820;2023-04-19T08:34:03;14.32;;;8.70;;
11191;SDS011;5652;48.406;10.820;2023-04-19T08:36:30;13.23;;;8.77;;
11191;SDS011;5652;48.406;10.820;2023-04-19T08:38:58;13.90;;;8.50;;
11191;SDS011;5652;48.406;10.820;2023-04-19T08:41:25;12.35;;;8.82;;
11191;SDS011;5652;48.406;10.820;2023-04-19T08:43:52;13.50;;;8.80;;
11191;SDS011;5652;48.406;10.820;2023-04-19T08:46:20;13.40;;;8.57;;
11191;SDS011;5652;48.406;10.820;2023-04-19T08:48:48;12.97;;;8.90;;
11191;SDS011;5652;48.406;10.820;2023-04-19T08:51:17;15.73;;;8.90;;
11191;SDS011;5652;48.406;10.820;2023-04-19T08:53:44;13.73;;;9.05;;
11191;SDS011;5652;48.406;10.820;2023-04-19T08:56:13;13.98;;;8.60;;
11191;SDS011;5652;48.406;10.820;2023-04-19T08:58:40;12.90;;;8.95;;
11191;SDS011;5652;48.406;10.820;2023-04-19T09:01:07;13.87;;;8.70;;
11191;SDS011;5652;48.406;10.820;2023-04-19T09:03:38;11.38;;;8.48;;
11191;SDS011;5652;48.406;10.820;2023-04-19T09:06:10;13.73;;;8.57;;
11191;SDS011;5652;48.406;10.820;2023-04-19T09:08:39;12.52;;;8.57;;
11191;SDS011;5652;48.406;10.820;2023-04-19T09:11:07;12.77;;;8.50;;
11191;SDS011;5652;48.406;10.820;2023-04-19T09:13:34;12.87;;;8.17;;
11191;SDS011;5652;48.406;10.820;2023-04-19T09:16:03;11.57;;;7.88;;
11191;SDS011;5652;48.406;10.820;2023-04-19T09:18:32;11.77;;;7.37;;
11191;SDS011;5652;48.406;10.820;2023-04-19T09:20:59;11.45;;;7.60;;
11191;SDS011;5652;48.406;10.820;2023-04-19T09:23:27;11.73;;;7.03;;
11191;SDS011;5652;48.406;10.820;2023-04-19T09:25:56;11.80;;;7.47;;
11191;SDS011;5652;48.406;10.820;2023-04-19T09:28:24;10.70;;;7.22;;
11191;SDS011;5652;48.406;10.820;2023-04-19T09:30:51;10.32;;;7.40;;
11191;SDS011;5652;48.406;10.820;2023-04-19T09:33:32;11.38;;;7.78;;
11191;SDS011;5652;48.406;10.820;2023-04-19T09:36:00;10.57;;;7.82;;
11191;SDS011;5652;48.406;10.820;2023-04-19T09:38:28;10.98;;;7.78;;
11191;SDS011;5652;48.406;10.820;2023-04-19T09:41:06;13.75;;;8.10;;
11191;SDS011;5652;48.406;10.820;2023-04-19T09:43:34;13.48;;;8.20;;
11191;SDS011;5652;48.406;10.820;2023-04-19T09:46:01;12.05;;;7.55;;
11191;SDS011;5652;48.406;10.820;2023-04-19T09:48:28;11.80;;;8.30;;
11191;SDS011;5652;48.406;10.820;2023-04-19T09:50:57;14.43;;;8.20;;
11191;SDS011;5652;48.406;10.820;2023-04-19T09:53:25;11.90;;;8.23;;
11191;SDS011;5652;48.406;10.820;2023-04-19T09:55:52;11.55;;;7.97;;
11191;SDS011;5652;48.406;10.820;2023-04-19T09:58:21;13.90;;;8.00;;
11191;SDS011;5652;48.406;10.820;2023-04-19T10:00:48;13.10;;;8.15;;
11191;SDS011;5652;48.406;10.820;2023-04-19T10:03:29;12.48;;;8.35;;
11191;SDS011;5652;48.406;10.820;2023-04-19T10:05:57;12.65;;;8.38;;
11191;SDS011;5652;48.406;10.820;2023-04-19T10:08:24;12.27;;;8.20;;
11191;SDS011;5652;48.406;10.820;2023-04-19T10:10:52;12.30;;;8.02;;
11191;SDS011;5652;48.406;10.820;2023-04-19T10:13:21;10.52;;;7.35;;
11191;SDS011;5652;48.406;10.820;2023-04-19T10:15:49;11.13;;;7.90;;
11191;SDS011;5652;48.406;10.820;2023-04-19T10:18:16;11.07;;;7.13;;
11191;SDS011;5652;48.406;10.820;2023-04-19T10:20:45;11.00;;;7.47;;
11191;SDS011;5652;48.406;10.820;2023-04-19T10:23:13;12.75;;;7.85;;
11191;SDS011;5652;48.406;10.820;2023-04-19T10:25:44;11.63;;;7.18;;
11191;SDS011;5652;48.406;10.820;2023-04-19T10:28:11;10.55;;;7.35;;
11191;SDS011;5652;48.406;10.820;2023-04-19T10:30:50;11.13;;;7.60;;
11191;SDS011;5652;48.406;10.820;2023-04-19T10:33:23;13.18;;;7.85;;
11191;SDS011;5652;48.406;10.820;2023-04-19T10:35:50;12.88;;;7.28;;
11191;SDS011;5652;48.406;10.820;2023-04-19T10:38:17;12.10;;;7.68;;
11191;SDS011;5652;48.406;10.820;2023-04-19T10:40:57;12.13;;;7.50;;
11191;SDS011;5652;48.406;10.820;2023-04-19T10:43:29;11.50;;;8.50;;
11191;SDS011;5652;48.406;10.820;2023-04-19T10:45:59;13.45;;;8.93;;
11191;SDS011;5652;48.406;10.820;2023-04-19T10:48:33;16.67;;;9.63;;
11191;SDS011;5652;48.406;10.820;2023-04-19T10:51:02;17.20;;;9.77;;
11191;SDS011;5652;48.406;10.820;2023-04-19T10:53:43;15.85;;;8.75;;
11191;SDS011;5652;48.406;10.820;2023-04-19T10:56:11;15.80;;;9.37;;
11191;SDS011;5652;48.406;10.820;2023-04-19T11:01:35;17.23;;;9.45;;
11191;SDS011;5652;48.406;10.820;2023-04-19T11:04:03;14.70;;;8.98;;
11191;SDS011;5652;48.406;10.820;2023-04-19T11:06:31;12.63;;;8.33;;
11191;SDS011;5652;48.406;10.820;2023-04-19T11:08:58;17.20;;;9.50;;
11191;SDS011;5652;48.406;10.820;2023-04-19T11:11:27;15.35;;;10.07;;
11191;SDS011;5652;48.406;10.820;2023-04-19T11:13:54;14.57;;;9.77;;
11191;SDS011;5652;48.406;10.820;2023-04-19T11:16:21;18.65;;;9.48;;
11191;SDS011;5652;48.406;10.820;2023-04-19T11:18:51;16.67;;;9.98;;
11191;SDS011;5652;48.406;10.820;2023-04-19T11:21:20;14.52;;;9.38;;
11191;SDS011;5652;48.406;10.820;2023-04-19T11:23:47;18.63;;;10.00;;
11191;SDS011;5652;48.406;10.820;2023-04-19T11:26:15;17.20;;;10.05;;
11191;SDS011;5652;48.406;10.820;2023-04-19T11:28:42;17.40;;;10.10;;
11191;SDS011;5652;48.406;10.820;2023-04-19T11:31:10;15.18;;;9.68;;
11191;SDS011;5652;48.406;10.820;2023-04-19T11:33:37;18.60;;;9.88;;
11191;SDS011;5652;48.406;10.820;2023-04-19T11:36:07;17.20;;;9.60;;
11191;SDS011;5652;48.406;10.820;2023-04-19T11:38:37;19.65;;;10.38;;
11191;SDS011;5652;48.406;10.820;2023-04-19T11:41:05;15.10;;;9.18;;
11191;SDS011;5652;48.406;10.820;2023-04-19T11:43:33;15.23;;;9.13;;
11191;SDS011;5652;48.406;10.820;2023-04-19T11:46:04;19.97;;;10.50;;
11191;SDS011;5652;48.406;10.820;2023-04-19T11:48:32;16.58;;;10.52;;
11191;SDS011;5652;48.406;10.820;2023-04-19T11:50:59;16.45;;;10.98;;
11191;SDS011;5652;48.406;10.820;2023-04-19T11:53:29;18.40;;;10.70;;
11191;SDS011;5652;48.406;10.820;2023-04-19T11:55:57;16.33;;;10.40;;
11191;SDS011;5652;48.406;10.820;2023-04-19T11:58:24;15.32;;;9.90;;
11191;SDS011;5652;48.406;10.820;2023-04-19T12:00:53;17.05;;;10.57;;
11191;SDS011;5652;48.406;10.820;2023-04-19T12:03:22;17.42;;;9.90;;
11191;SDS011;5652;48.406;10.820;2023-04-19T12:05:55;14.35;;;9.45;;
11191;SDS011;5652;48.406;10.820;2023-04-19T12:08:31;16.10;;;9.55;;
11191;SDS011;5652;48.406;10.820;2023-04-19T12:10:59;20.27;;;10.23;;
11191;SDS011;5652;48.406;10.820;2023-04-19T12:13:27;15.50;;;9.85;;
11191;SDS011;5652;48.406;10.820;2023-04-19T12:15:54;18.25;;;9.65;;
11191;SDS011;5652;48.406;10.820;2023-04-19T12:18:22;15.93;;;9.67;;
11191;SDS011;5652;48.406;10.820;2023-04-19T12:20:49;17.58;;;9.65;;
11191;SDS011;5652;48.406;10.820;2023-04-19T12:23:17;17.20;;;9.73;;
11191;SDS011;5652;48.406;10.820;2023-04-19T12:25:46;16.67;;;9.93;;
11191;SDS011;5652;48.406;10.820;2023-04-19T12:28:14;16.27;;;9.50;;
11191;SDS011;5652;48.406;10.820;2023-04-19T12:30:41;13.07;;;8.18;;
11191;SDS011;5652;48.406;10.820;2023-04-19T12:33:08;13.98;;;7.55;;
11191;SDS011;5652;48.406;10.820;2023-04-19T12:35:36;12.88;;;7.13;;
11191;SDS011;5652;48.406;10.820;2023-04-19T12:38:03;14.50;;;7.60;;
11191;SDS011;5652;48.406;10.820;2023-04-19T12:40:31;10.98;;;6.50;;
11191;SDS011;5652;48.406;10.820;2023-04-19T12:42:59;12.50;;;7.38;;
11191;SDS011;5652;48.406;10.820;2023-04-19T12:45:27;15.85;;;7.30;;
11191;SDS011;5652;48.406;10.820;2023-04-19T12:47:54;12.57;;;7.32;;
11191;SDS011;5652;48.406;10.820;2023-04-19T12:50:21;10.65;;;6.82;;
11191;SDS011;5652;48.406;10.820;2023-04-19T12:52:48;10.88;;;6.57;;
11191;SDS011;5652;48.406;10.820;2023-04-19T12:55:17;10.17;;;5.93;;
11191;SDS011;5652;48.406;10.820;2023-04-19T12:57:44;11.15;;;6.85;;
11191;SDS011;5652;48.406;10.820;2023-04-19T13:00:13;10.40;;;6.50;;
11191;SDS011;5652;48.406;10.820;2023-04-19T13:02:41;12.52;;;7.43;;
11191;SDS011;5652;48.406;10.820;2023-04-19T13:05:09;12.47;;;7.60;;
11191;SDS011;5652;48.406;10.820;2023-04-19T13:07:38;12.68;;;7.85;;
11191;SDS011;5652;48.406;10.820;2023-04-19T13:10:05;13.15;;;8.43;;
11191;SDS011;5652;48.406;10.820;2023-04-19T13:12:33;13.13;;;8.15;;
11191;SDS011;5652;48.406;10.820;2023-04-19T13:15:00;14.27;;;8.65;;
11191;SDS011;5652;48.406;10.820;2023-04-19T13:17:29;12.55;;;7.68;;
11191;SDS011;5652;48.406;10.820;2023-04-19T13:19:56;13.43;;;8.38;;
11191;SDS011;5652;48.406;10.820;2023-04-19T13:22:23;13.40;;;8.03;;
11191;SDS011;5652;48.406;10.820;2023-04-19T13:24:50;16.20;;;9.23;;
11191;SDS011;5652;48.406;10.820;2023-04-19T13:27:17;17.60;;;10.02;;
11191;SDS011;5652;48.406;10.820;2023-04-19T13:29:44;17.42;;;9.77;;
11191;SDS011;5652;48.406;10.820;2023-04-19T13:32:12;21.67;;;11.68;;
11191;SDS011;5652;48.406;10.820;2023-04-19T13:34:40;16.85;;;9.85;;
11191;SDS011;5652;48.406;10.820;2023-04-19T13:37:07;19.17;;;10.30;;
11191;SDS011;5652;48.406;10.820;2023-04-19T13:39:35;18.70;;;10.63;;
11191;SDS011;5652;48.406;10.820;2023-04-19T13:42:02;16.80;;;9.75;;
11191;SDS011;5652;48.406;10.820;2023-04-19T13:44:29;15.63;;;8.93;;
11191;SDS011;5652;48.406;10.820;2023-04-19T13:46:57;16.70;;;8.95;;
11191;SDS011;5652;48.406;10.820;2023-04-19T13:49:24;15.52;;;9.73;;
11191;SDS011;5652;48.406;10.820;2023-04-19T13:51:53;18.52;;;9.93;;
11191;SDS011;5652;48.406;10.820;2023-04-19T13:54:20;15.70;;;9.38;;
11191;SDS011;5652;48.406;10.820;2023-04-19T13:56:47;16.88;;;9.52;;
11191;SDS011;5652;48.406;10.820;2023-04-19T13:59:14;16.67;;;9.50;;
11191;SDS011;5652;48.406;10.820;2023-04-19T14:01:41;15.20;;;9.82;;
11191;SDS011;5652;48.406;10.820;2023-04-19T14:04:08;18.50;;;10.27;;
11191;SDS011;5652;48.406;10.820;2023-04-19T14:06:35;18.30;;;10.60;;
11191;SDS011;5652;48.406;10.820;2023-04-19T14:09:04;18.58;;;10.32;;
11191;SDS011;5652;48.406;10.820;2023-04-19T14:11:31;23.27;;;11.93;;
11191;SDS011;5652;48.406;10.820;2023-04-19T14:13:58;18.50;;;9.10;;
11191;SDS011;5652;48.406;10.820;2023-04-19T14:16:25;14.70;;;8.38;;
11191;SDS011;5652;48.406;10.820;2023-04-19T14:18:52;16.25;;;8.82;;
11191;SDS011;5652;48.406;10.820;2023-04-19T14:21:19;13.45;;;7.40;;
11191;SDS011;5652;48.406;10.820;2023-04-19T14:23:47;12.45;;;7.90;;
11191;SDS011;5652;48.406;10.820;2023-04-19T14:26:15;12.65;;;7.70;;
11191;SDS011;5652;48.406;10.820;2023-04-19T14:28:42;13.57;;;7.90;;
11191;SDS011;5652;48.406;10.820;2023-04-19T14:31:09;9.88;;;5.60;;
11191;SDS011;5652;48.406;10.820;2023-04-19T14:33:36;9.93;;;6.40;;